Time;durP1;ratioP1;P1;durP2;ratioP2;P2;SDS_P1;SDS_P2;PMS_P1;PMS_P2;Temp;Humidity;BMP_temperature;BMP_pressure;BME280_temperature;BME280_humidity;BME280_pressure;Samples;Min_cycle;Max_cycle;Signal;HPM_P1;HPM_P2
2021/11/08 00:02:01;;;;;;;;;72.33;56.00;;;;;8.28;100.00;99746.34;6316689;20;3622278;-43
2021/11/08 00:04:32;;;;;;;;;73.67;55.00;;;;;8.24;100.00;99722.50;6315985;20;3638769;-44
2021/11/08 00:07:04;;;;;;;;;73.67;55.33;;;;;8.08;100.00;99704.59;6315681;20;3636718;-43
2021/11/08 00:09:34;;;;;;;;;72.67;56.67;;;;;8.11;100.00;99731.19;6313789;20;3628364;-43
2021/11/08 00:12:05;;;;;;;;;77.00;58.67;;;;;8.10;100.00;99739.28;6316457;20;3617951;-43
2021/11/08 00:14:35;;;;;;;;;73.33;54.67;;;;;8.00;100.00;99744.22;6314959;20;3619058;-43
2021/11/08 00:17:13;;;;;;;;;73.00;56.00;;;;;7.91;100.00;99715.28;6315264;20;3630455;-44
2021/11/08 00:19:57;;;;;;;;;79.00;59.33;;;;;8.01;100.00;99716.53;6281253;20;3633644;-46
2021/11/08 00:22:26;;;;;;;;;77.67;59.67;;;;;7.94;100.00;99716.94;6318401;20;3625266;-43
2021/11/08 00:24:56;;;;;;;;;72.67;57.00;;;;;8.00;100.00;99733.50;6284274;20;3627488;-42
2021/11/08 00:27:26;;;;;;;;;76.00;57.00;;;;;7.92;100.00;99717.00;6314463;20;3629495;-43
2021/11/08 00:29:56;;;;;;;;;70.33;52.00;;;;;7.76;100.00;99734.75;6315257;20;3645090;-43
2021/11/08 00:32:25;;;;;;;;;74.67;59.00;;;;;7.81;100.00;99735.38;6281520;20;3629421;-44
2021/11/08 00:34:55;;;;;;;;;78.33;60.00;;;;;7.83;100.00;99712.13;6316557;20;3629567;-43
2021/11/08 00:37:25;;;;;;;;;80.50;60.75;;;;;7.81;100.00;99703.31;6317091;20;3648204;-43
2021/11/08 00:39:54;;;;;;;;;78.67;58.00;;;;;7.85;100.00;99691.53;6314686;20;3631461;-43
2021/11/08 00:42:28;;;;;;;;;74.67;57.00;;;;;7.70;100.00;99707.38;6313018;20;3615875;-44
2021/11/08 00:44:58;;;;;;;;;78.00;61.00;;;;;7.69;100.00;99713.69;6312662;20;3618094;-43
2021/11/08 00:47:29;;;;;;;;;79.67;61.00;;;;;7.70;100.00;99707.38;6314802;20;3626651;-43
2021/11/08 00:50:05;;;;;;;;;80.00;62.00;;;;;7.73;100.00;99735.75;6314521;20;3639813;-43
2021/11/08 00:52:35;;;;;;;;;77.67;60.67;;;;;7.73;100.00;99718.88;6281298;20;3626292;-44
2021/11/08 00:55:06;;;;;;;;;83.00;60.33;;;;;7.61;100.00;99709.63;6314728;20;3645144;-44
2021/11/08 00:57:38;;;;;;;;;80.00;61.33;;;;;7.50;100.00;99696.78;6278639;20;3640271;-42
2021/11/08 01:00:12;;;;;;;;;82.00;62.67;;;;;7.57;100.00;99686.69;6314336;20;3614880;-42
2021/11/08 01:02:44;;;;;;;;;77.67;60.33;;;;;7.52;100.00;99688.72;6314427;20;3623188;-43
2021/11/08 01:05:16;;;;;;;;;80.33;63.00;;;;;7.85;100.00;99707.56;6309938;20;3629430;-45
2021/11/08 01:07:46;;;;;;;;;75.67;59.33;;;;;7.60;100.00;99714.13;6313153;20;3613826;-43
2021/11/08 01:10:19;;;;;;;;;79.33;59.67;;;;;7.60;100.00;99723.94;6315150;20;3629533;-43
2021/11/08 01:12:48;;;;;;;;;66.00;55.50;;;;;7.51;100.00;99727.94;6315486;20;2867959;-44
2021/11/08 01:15:19;;;;;;;;;80.00;60.00;;;;;7.45;100.00;99725.53;6282804;20;3636842;-45
2021/11/08 01:17:51;;;;;;;;;83.33;63.33;;;;;7.56;100.00;99709.88;6278800;20;3643008;-42
2021/11/08 01:20:27;;;;;;;;;78.67;61.00;;;;;7.50;100.00;99707.47;6313860;20;3624174;-43
2021/11/08 01:22:56;;;;;;;;;82.00;62.33;;;;;7.54;100.00;99697.53;6312699;20;3638953;-43
2021/11/08 01:25:25;;;;;;;;;80.67;61.33;;;;;7.60;100.00;99708.78;6313505;20;3644176;-42
2021/11/08 01:27:57;;;;;;;;;82.00;59.00;;;;;7.74;100.00;99725.94;6281305;20;3640846;-42
2021/11/08 01:30:28;;;;;;;;;78.33;59.33;;;;;7.54;100.00;99724.25;6312331;20;2872419;-45
2021/11/08 01:33:14;;;;;;;;;72.00;58.00;;;;;7.61;100.00;99715.88;6312512;20;2867074;-42
2021/11/08 01:35:55;;;;;;;;;83.00;59.00;;;;;7.62;100.00;99708.72;6315021;20;3660647;-42
2021/11/08 01:38:27;;;;;;;;;75.33;58.67;;;;;7.80;100.00;99725.66;6279231;20;2865926;-43
2021/11/08 01:40:56;;;;;;;;;75.33;57.00;;;;;7.79;100.00;99710.53;6310006;20;3646093;-43
2021/11/08 01:43:26;;;;;;;;;77.67;58.00;;;;;7.71;100.00;99689.53;6312586;20;3636736;-43
2021/11/08 01:45:56;;;;;;;;;77.75;57.75;;;;;7.81;100.00;99708.66;6316078;20;3651406;-43
2021/11/08 01:48:26;;;;;;;;;84.00;60.67;;;;;7.72;100.00;99703.78;6310115;20;3639849;-43
2021/11/08 01:50:56;;;;;;;;;77.67;57.33;;;;;7.79;100.00;99706.03;6312983;20;3637745;-44
2021/11/08 01:53:25;;;;;;;;;77.00;59.50;;;;;7.72;100.00;99709.13;6311219;20;3501404;-42
2021/11/08 01:55:56;;;;;;;;;80.00;60.00;;;;;7.48;100.00;99722.75;6310566;20;3635723;-44
2021/11/08 01:58:30;;;;;;;;;79.33;59.33;;;;;7.50;100.00;99706.63;6310372;20;3646184;-42
2021/11/08 02:01:01;;;;;;;;;76.00;57.67;;;;;7.52;100.00;99713.63;6280253;20;3629425;-44
2021/11/08 02:03:31;;;;;;;;;81.67;59.00;;;;;7.61;100.00;99707.84;6312075;20;3641895;-44
2021/11/08 02:06:01;;;;;;;;;79.67;59.33;;;;;7.58;100.00;99691.97;6279689;20;3637735;-43
2021/11/08 02:08:31;;;;;;;;;80.33;59.67;;;;;7.58;100.00;99705.34;6312460;20;3631494;-43
2021/11/08 02:11:01;;;;;;;;;79.67;61.00;;;;;7.56;100.00;99717.03;6313111;20;3642952;-44
2021/11/08 02:13:30;;;;;;;;;76.33;59.00;;;;;7.40;100.00;99730.25;6279367;20;2876416;-44
2021/11/08 02:16:01;;;;;;;;;79.33;61.00;;;;;7.36;100.00;99721.50;6312190;20;3613875;-43
2021/11/08 02:18:34;;;;;;;;;78.00;60.00;;;;;7.40;100.00;99715.09;6312272;20;2862849;-44
2021/11/08 02:21:07;;;;;;;;;75.33;60.00;;;;;7.45;100.00;99728.22;6310711;20;3616909;-43
2021/11/08 02:23:42;;;;;;;;;75.00;57.00;;;;;7.48;100.00;99722.75;6280552;20;3638807;-43
2021/11/08 02:26:15;;;;;;;;;73.00;56.00;;;;;7.61;100.00;99715.88;6308983;20;3634623;-43
2021/11/08 02:28:49;;;;;;;;;73.33;56.00;;;;;7.62;100.00;99695.34;6311220;20;3632652;-43
2021/11/08 02:31:23;;;;;;;;;71.33;53.00;;;;;7.62;100.00;99674.84;6310968;20;3638834;-43
2021/11/08 02:33:54;;;;;;;;;74.33;57.00;;;;;7.50;100.00;99661.22;6311935;20;3633557;-41
2021/11/08 02:36:25;;;;;;;;;73.67;54.67;;;;;7.59;100.00;99648.28;6311065;20;3638988;-42
2021/11/08 02:38:57;;;;;;;;;72.00;55.00;;;;;7.53;100.00;99653.94;6310412;20;3620089;-42
2021/11/08 02:41:28;;;;;;;;;75.33;56.00;;;;;7.77;100.00;99672.34;6310150;20;3632809;-43
2021/11/08 02:44:03;;;;;;;;;67.33;53.33;;;;;7.43;100.00;99695.38;6312180;20;3617066;-45
2021/11/08 02:46:38;;;;;;;;;72.33;55.33;;;;;7.39;100.00;99701.81;6311737;20;3641895;-44
2021/11/08 02:49:10;;;;;;;;;73.67;56.33;;;;;7.35;100.00;99678.88;6277153;20;3641929;-43
2021/11/08 02:51:48;;;;;;;;;72.33;56.00;;;;;7.39;100.00;99683.97;6312860;20;3635760;-43
2021/11/08 02:54:29;;;;;;;;;78.67;58.00;;;;;7.44;100.00;99684.59;6278651;20;3654027;-44
2021/11/08 02:57:00;;;;;;;;;70.67;56.33;;;;;7.46;100.00;99696.09;6274871;20;2872319;-43
2021/11/08 02:59:31;;;;;;;;;73.33;56.00;;;;;7.57;100.00;99711.59;6307473;20;3637717;-44
2021/11/08 03:02:06;;;;;;;;;69.33;53.33;;;;;7.52;100.00;99726.13;6312291;20;3635616;-45
2021/11/08 03:04:41;;;;;;;;;70.33;55.00;;;;;7.39;100.00;99717.84;6311193;20;3624166;-43
2021/11/08 03:07:11;;;;;;;;;67.33;52.33;;;;;7.47;100.00;99713.84;6313469;20;3632506;-44
2021/11/08 03:09:56;;;;;;;;;67.33;53.00;;;;;7.48;100.00;99714.72;6310789;20;3633952;-44
2021/11/08 03:12:30;;;;;;;;;59.33;48.00;;;;;7.59;100.00;99719.56;6310543;20;2862890;-45
2021/11/08 03:16:04;;;;;;;;;63.33;50.33;;;;;7.51;100.00;99729.75;6312586;20;3617018;-44
2021/11/08 03:18:05;;;;;;;;;59.67;45.33;;;;;7.57;100.00;99724.09;6306801;20;3627350;-45
2021/11/08 03:20:37;;;;;;;;;60.33;49.00;;;;;7.60;100.00;99724.81;6310837;20;3624257;-43
2021/11/08 03:23:08;;;;;;;;;59.00;46.33;;;;;7.61;100.00;99710.53;6316000;20;3623165;-44
2021/11/08 03:25:45;;;;;;;;;63.00;48.50;;;;;7.56;100.00;99709.88;6313694;20;2850317;-45
2021/11/08 03:28:14;;;;;;;;;59.33;46.33;;;;;7.51;100.00;99733.28;6283933;20;3628450;-44
2021/11/08 03:30:48;;;;;;;;;59.67;48.33;;;;;7.56;100.00;99754.44;6314111;20;2872219;-45
2021/11/08 03:33:19;;;;;;;;;67.00;51.00;;;;;7.50;100.00;99765.41;6316547;20;3625241;-45
2021/11/08 03:35:49;;;;;;;;;63.33;50.00;;;;;7.48;100.00;99758.34;6317664;20;2864940;-44
2021/11/08 03:38:18;;;;;;;;;65.00;52.33;;;;;7.41;100.00;99748.00;6311672;20;3627358;-46
2021/11/08 03:40:48;;;;;;;;;65.00;51.33;;;;;7.63;100.00;99743.34;6316219;20;3616945;-44
2021/11/08 03:43:20;;;;;;;;;63.67;48.00;;;;;7.50;100.00;99728.84;6316860;20;3623174;-45
2021/11/08 03:45:51;;;;;;;;;68.33;52.33;;;;;7.41;100.00;99745.34;6316969;20;3642020;-45
2021/11/08 03:48:20;;;;;;;;;62.00;50.00;;;;;7.38;100.00;99751.69;6282668;20;2806682;-44
2021/11/08 03:50:50;;;;;;;;;68.00;53.67;;;;;7.44;100.00;99763.88;6284876;20;2875520;-44
2021/11/08 03:53:20;;;;;;;;;63.67;52.00;;;;;7.32;100.00;99764.47;6314899;20;3619071;-45
2021/11/08 03:55:53;;;;;;;;;63.00;52.00;;;;;7.48;100.00;99762.81;6316439;20;2879536;-44
2021/11/08 03:58:22;;;;;;;;;62.33;49.33;;;;;7.47;100.00;99761.94;6314498;20;3617912;-46
2021/11/08 04:00:52;;;;;;;;;57.00;46.33;;;;;7.52;100.00;99753.69;6315186;20;2857543;-44
2021/11/08 04:03:23;;;;;;;;;66.67;52.00;;;;;7.51;100.00;99754.66;6315449;20;3645002;-44
2021/11/08 04:05:52;;;;;;;;;56.00;45.67;;;;;7.53;100.00;99755.44;6315192;20;3599284;-44
2021/11/08 04:08:22;;;;;;;;;65.33;49.00;;;;;7.29;100.00;99746.78;6313951;20;3609605;-42
2021/11/08 04:10:55;;;;;;;;;58.00;46.33;;;;;7.33;100.00;99755.53;6316615;20;2856557;-45
2021/11/08 04:13:34;;;;;;;;;58.33;44.00;;;;;7.33;100.00;99759.06;6314431;20;2858663;-41
2021/11/08 04:16:06;;;;;;;;;59.33;46.00;;;;;7.22;100.00;99748.88;6313809;20;2873402;-44
2021/11/08 04:18:35;;;;;;;;;54.00;46.33;;;;;7.17;100.00;99731.34;6310845;20;2866970;-43
2021/11/08 04:21:05;;;;;;;;;54.33;44.33;;;;;7.23;100.00;99737.25;6314502;20;2863910;-41
2021/11/08 04:23:35;;;;;;;;;53.00;42.00;;;;;7.30;100.00;99736.97;6316944;20;2852517;-41
2021/11/08 04:26:06;;;;;;;;;59.00;46.33;;;;;7.49;100.00;99764.53;6311453;20;3613844;-41
2021/11/08 04:28:36;;;;;;;;;59.00;44.33;;;;;7.43;100.00;99760.34;6313045;20;3623135;-42
2021/11/08 04:31:10;;;;;;;;;58.00;46.00;;;;;7.25;100.00;99767.41;6313833;20;2872234;-41
2021/11/08 04:33:47;;;;;;;;;36.67;33.67;;;;;7.23;100.00;99769.28;6316342;20;3589860;-41
2021/11/08 04:42:14;;;;;;;;;39.00;34.67;;;;;7.33;100.00;99779.56;6314785;20;3632848;-46
2021/11/08 04:44:57;;;;;;;;;46.33;33.33;;;;;7.19;100.00;99761.53;6294428;20;3632681;-41
2021/11/08 04:53:04;;;;;;;;;36.33;35.67;;;;;7.25;100.00;99759.41;6316330;20;3604401;-41
2021/11/08 05:29:52;;;;;;;;;34.00;28.50;;;;;7.31;100.00;99792.13;6279823;20;2851409;-41
2021/11/08 05:31:27;;;;;;;;;30.00;25.00;;;;;7.17;100.00;99798.97;6281159;20;2839883;-43
2021/11/08 05:33:55;;;;;;;;;27.50;26.00;;;;;7.19;100.00;99789.09;6283323;20;2839842;-42
2021/11/08 05:36:24;;;;;;;;;29.00;25.50;;;;;7.14;100.00;99775.06;6282095;20;2840996;-42
2021/11/08 05:38:54;;;;;;;;;35.67;30.67;;;;;7.30;100.00;99787.72;6282313;20;3607512;-42
2021/11/08 05:41:23;;;;;;;;;33.00;29.00;;;;;7.39;100.00;99796.16;6316853;20;3594016;-42
2021/11/08 05:43:51;;;;;;;;;36.00;28.00;;;;;7.30;100.00;99812.63;6282173;20;2851438;-43
2021/11/08 05:46:21;;;;;;;;;37.33;32.33;;;;;7.24;100.00;99824.44;6280988;20;2869089;-43
2021/11/08 05:48:51;;;;;;;;;28.50;28.00;;;;;7.25;100.00;99844.00;6312613;20;2836708;-42
2021/11/08 05:51:20;;;;;;;;;30.00;25.00;;;;;7.16;100.00;99858.66;6279942;20;2859676;-44
2021/11/08 05:53:50;;;;;;;;;29.50;20.00;;;;;7.11;100.00;99859.75;6282981;20;2854444;-42
2021/11/08 06:51:56;;;;;;;;;33.67;29.00;;;;;7.29;100.00;99944.41;6316820;20;2866904;-43
2021/11/08 06:54:29;;;;;;;;;30.33;30.33;;;;;7.04;100.00;99945.47;6317307;20;2852340;-43
2021/11/08 06:57:00;;;;;;;;;38.00;34.00;;;;;7.08;100.00;99935.53;6316226;20;2862739;-42
2021/11/08 06:59:29;;;;;;;;;34.00;28.00;;;;;7.12;100.00;99931.78;6317066;20;3591972;-45
2021/11/08 07:02:03;;;;;;;;;35.33;34.33;;;;;7.18;100.00;99947.53;6282678;20;3611683;-43
2021/11/08 07:04:33;;;;;;;;;42.50;33.25;;;;;7.20;100.00;99961.69;6321718;20;3628362;-44
2021/11/08 07:07:05;;;;;;;;;40.33;36.00;;;;;7.22;100.00;99959.84;6317346;20;3611717;-45
2021/11/08 07:09:36;;;;;;;;;35.33;30.67;;;;;7.12;100.00;99965.66;6285859;20;3612729;-43
2021/11/08 07:12:08;;;;;;;;;38.33;36.00;;;;;7.04;100.00;99960.63;6315392;20;3579515;-42
2021/11/08 07:14:39;;;;;;;;;37.00;30.00;;;;;7.16;100.00;99962.78;6279508;20;3608603;-44
2021/11/08 07:17:08;;;;;;;;;34.33;30.00;;;;;7.20;100.00;99985.72;6319653;20;3598164;-42
2021/11/08 07:19:38;;;;;;;;;32.67;28.67;;;;;7.09;100.00;99990.69;6283265;20;2849446;-45
2021/11/08 07:22:07;;;;;;;;;31.67;30.00;;;;;7.08;100.00;99994.25;6318809;20;3589804;-42
2021/11/08 07:24:37;;;;;;;;;36.67;32.00;;;;;7.00;100.00;100005.28;6283478;20;3610872;-44
2021/11/08 07:27:07;;;;;;;;;32.00;29.00;;;;;7.23;100.00;99998.94;6317405;20;2850278;-43
2021/11/08 07:29:37;;;;;;;;;34.00;32.67;;;;;7.04;100.00;100000.69;6314371;20;3600276;-43
2021/11/08 07:32:07;;;;;;;;;32.00;28.00;;;;;7.13;100.00;99986.06;6284366;20;2848280;-43
2021/11/08 07:34:36;;;;;;;;;38.00;34.67;;;;;7.16;100.00;99980.59;6286406;20;3616907;-42
2021/11/08 07:37:06;;;;;;;;;32.50;31.50;;;;;7.13;100.00;99962.91;6284205;20;2858671;-43
2021/11/08 07:39:35;;;;;;;;;30.00;27.00;;;;;7.11;100.00;99963.91;6284201;20;2850258;-44
2021/11/08 07:42:06;;;;;;;;;38.33;33.33;;;;;7.32;100.00;99962.09;6285004;20;3606494;-43
2021/11/08 07:44:35;;;;;;;;;34.67;27.67;;;;;7.33;100.00;99961.19;6320089;20;3595135;-43
2021/11/08 07:47:04;;;;;;;;;39.50;33.00;;;;;7.32;99.14;99965.66;6282064;20;2859619;-47
2021/11/08 07:49:33;;;;;;;;;36.33;35.00;;;;;7.50;98.86;99968.44;6285214;20;3606601;-43
2021/11/08 07:52:06;;;;;;;;;31.67;28.67;;;;;7.55;98.60;99971.78;6281391;20;2860754;-43
2021/11/08 07:54:37;;;;;;;;;30.50;28.00;;;;;7.48;98.84;99965.84;6316953;20;2845213;-44
2021/11/08 07:57:07;;;;;;;;;39.00;33.33;;;;;7.39;99.41;99966.25;6283950;20;3612749;-43
2021/11/08 07:59:37;;;;;;;;;34.00;29.33;;;;;7.40;99.40;99970.66;6315639;20;2858672;-43
2021/11/08 08:02:06;;;;;;;;;35.67;30.33;;;;;7.45;99.41;99960.63;6315430;20;3597157;-44
2021/11/08 08:04:36;;;;;;;;;30.33;29.33;;;;;7.45;99.42;99944.59;6281218;20;3596072;-42
2021/11/08 08:07:05;;;;;;;;;37.67;33.33;;;;;7.39;99.70;99945.72;6317690;20;3602795;-42
2021/11/08 08:09:35;;;;;;;;;38.33;33.33;;;;;7.56;97.92;99947.66;6281961;20;3603337;-43
2021/11/08 08:12:08;;;;;;;;;38.67;33.33;;;;;7.62;98.37;99947.38;6316045;20;3618960;-43
2021/11/08 08:14:36;;;;;;;;;46.00;38.00;;;;;7.55;99.13;99945.91;6315468;20;3617952;-43
2021/11/08 08:17:05;;;;;;;;;37.50;33.00;;;;;7.72;97.82;99957.66;6284509;20;2854415;-43
2021/11/08 08:19:34;;;;;;;;;32.67;31.33;;;;;7.76;96.91;99962.78;6283058;20;3602380;-43
2021/11/08 08:22:05;;;;;;;;;37.67;31.33;;;;;7.79;96.94;99964.44;6280870;20;3607510;-45
2021/11/08 08:24:34;;;;;;;;;22.50;22.50;;;;;7.88;96.67;99970.25;6312157;20;2844087;-43
2021/11/08 08:27:04;;;;;;;;;31.00;27.00;;;;;7.82;96.02;99961.63;6279448;20;2850277;-45
2021/11/08 08:29:35;;;;;;;;;34.67;30.67;;;;;7.99;96.65;99972.44;6282625;20;2853501;-43
2021/11/08 08:32:05;;;;;;;;;28.50;25.00;;;;;8.03;95.30;99995.44;6316852;20;2845063;-44
2021/11/08 08:34:50;;;;;;;;;33.00;25.33;;;;;7.86;96.61;99987.31;6284666;20;2869143;-44
2021/11/08 08:37:20;;;;;;;;;29.33;27.33;;;;;7.90;97.00;99972.88;6316751;20;3580638;-43
2021/11/08 08:39:51;;;;;;;;;30.67;28.00;;;;;8.00;97.10;99963.44;6314798;20;2852367;-43
2021/11/08 08:42:20;;;;;;;;;26.00;24.50;;;;;8.19;94.26;99946.53;6314047;20;2835820;-42
2021/11/08 08:44:52;;;;;;;;;35.67;27.67;;;;;8.22;93.52;99957.13;6283712;20;3598247;-45
2021/11/08 08:47:22;;;;;;;;;30.50;23.00;;;;;8.19;93.40;99973.28;6314708;20;2856640;-45
2021/11/08 08:49:52;;;;;;;;;22.00;19.50;;;;;8.25;92.19;99994.41;6284774;20;2834802;-44
2021/11/08 08:52:22;;;;;;;;;24.00;24.00;;;;;8.64;93.21;100004.19;6283466;20;2854451;-43
2021/11/08 08:54:52;;;;;;;;;25.00;21.00;;;;;8.42;90.44;100013.22;6283310;20;2500287;-43
2021/11/08 08:57:20;;;;;;;;;13.50;13.50;;;;;8.60;89.62;99999.91;6283128;20;2810797;-44
2021/11/08 08:59:48;;;;;;;;;17.50;15.50;;;;;8.78;89.64;99999.88;6283952;20;2498269;-43
2021/11/08 09:02:17;;;;;;;;;20.67;17.00;;;;;8.92;88.12;100022.44;6280827;20;3562720;-43
2021/11/08 09:04:45;;;;;;;;;19.00;18.00;;;;;8.90;88.04;100037.69;6283246;20;2500274;-43
2021/11/08 09:07:15;;;;;;;;;22.00;18.50;;;;;8.94;89.12;100036.63;6280849;20;2500289;-43
2021/11/08 09:09:44;;;;;;;;;23.50;21.50;;;;;8.99;90.08;100046.16;6277711;20;2494051;-42
2021/11/08 09:12:13;;;;;;;;;25.00;21.00;;;;;8.91;89.03;100055.53;6283564;20;2830494;-43
2021/11/08 09:14:42;;;;;;;;;25.00;22.00;;;;;8.88;89.26;100053.88;6281806;20;2854482;-43
2021/11/08 09:17:13;;;;;;;;;28.00;22.50;;;;;8.80;90.70;100050.69;6283481;20;2852364;-43
2021/11/08 09:20:03;;;;;;;;;29.67;26.00;;;;;8.88;90.83;100047.66;6286027;20;3589900;-42
2021/11/08 09:22:32;;;;;;;;;30.00;28.00;;;;;8.76;89.21;100043.75;6280818;20;2850327;-43
2021/11/08 09:25:26;;;;;;;;;35.50;32.00;;;;;8.94;89.34;100053.56;6291687;20;3602363;-43
2021/11/08 09:28:01;;;;;;;;;56.67;44.00;;;;;9.14;88.95;100049.91;6339381;20;2869173;-43
2021/11/08 09:30:41;;;;;;;;;43.00;37.00;;;;;9.13;88.01;100058.88;6342544;20;2866962;-44
2021/11/08 09:33:12;;;;;;;;;29.00;29.00;;;;;9.31;88.16;100050.88;6341392;20;2843985;-43
2021/11/08 09:35:48;;;;;;;;;27.33;23.00;;;;;9.37;87.41;100055.91;6309181;20;2853525;-43
2021/11/08 09:38:20;;;;;;;;;29.50;24.00;;;;;9.49;86.42;100062.47;6340349;20;2850253;-43
2021/11/08 09:40:48;;;;;;;;;24.00;24.00;;;;;9.39;85.75;100057.56;6309347;20;2845033;-43
2021/11/08 09:43:23;;;;;;;;;26.00;25.00;;;;;9.35;84.97;100052.47;6309762;20;2849331;-43
2021/11/08 09:45:53;;;;;;;;;38.67;22.67;;;;;9.45;84.82;100053.69;6307843;20;2869068;-43
2021/11/08 09:48:22;;;;;;;;;26.00;23.00;;;;;9.45;83.87;100051.91;6338658;20;2487834;-43
2021/11/08 09:50:52;;;;;;;;;18.33;18.33;;;;;9.49;85.81;100046.38;6306229;20;3542919;-43
2021/11/08 09:53:21;;;;;;;;;24.00;18.50;;;;;9.37;84.63;100046.06;6309422;20;2835644;-42
2021/11/08 09:55:49;;;;;;;;;21.00;16.00;;;;;9.47;83.22;100041.09;6305775;20;2491917;-44
2021/11/08 09:58:17;;;;;;;;;20.50;18.00;;;;;9.52;83.64;100038.19;6304844;20;2491928;-43
2021/11/08 10:00:56;;;;;;;;;12.40;11.20;;;;;9.44;81.74;100036.75;6353571;20;1949393;-43
2021/11/08 10:03:33;;;;;;;;;16.00;14.67;;;;;9.61;82.67;100032.31;6339467;20;3548148;-43
2021/11/08 10:06:02;;;;;;;;;21.00;19.00;;;;;9.71;81.22;100032.72;6308280;20;3562783;-42
2021/11/08 10:08:37;;;;;;;;;15.50;14.50;;;;;9.81;79.67;100029.47;6340817;20;2811820;-43
2021/11/08 10:11:15;;;;;;;;;17.33;12.33;;;;;9.79;80.46;100031.38;6309383;20;3538813;-43
2021/11/08 10:13:46;;;;;;;;;15.00;14.00;;;;;9.92;80.76;100028.03;6309412;20;2815986;-44
2021/11/08 10:16:34;;;;;;;;;11.50;11.50;;;;;10.17;78.57;100033.81;6311449;20;2788840;-43
2021/11/08 10:19:08;;;;;;;;;21.50;19.00;;;;;10.08;79.78;100037.88;6311392;20;2831524;-43
2021/11/08 10:21:45;;;;;;;;;14.50;13.50;;;;;10.23;78.86;100024.56;6311601;20;2813187;-43
2021/11/08 10:24:33;;;;;;;;;11.33;11.33;;;;;10.22;77.93;100026.41;6302595;20;2788992;-43
2021/11/08 10:27:11;;;;;;;;;15.50;12.00;;;;;10.25;78.28;100034.28;6338984;20;2807753;-43
2021/11/08 10:29:47;;;;;;;;;16.00;13.67;;;;;10.29;77.30;100040.34;6305101;20;3538812;-44
2021/11/08 10:32:17;;;;;;;;;14.00;12.00;;;;;10.20;77.38;100027.44;6340161;20;3532511;-47
2021/11/08 10:34:58;;;;;;;;;22.00;22.00;;;;;10.23;77.71;100025.44;6304234;20;2837764;-44
2021/11/08 10:37:31;;;;;;;;;20.00;19.00;;;;;10.35;78.51;100031.09;6284731;20;2498248;-42
2021/11/08 10:40:16;;;;;;;;;14.33;14.00;;;;;10.24;77.47;100035.22;6283919;20;3542927;-43
2021/11/08 10:42:55;;;;;;;;;11.00;11.00;;;;;10.33;76.03;100021.31;6320841;20;2795128;-43
2021/11/08 10:45:23;;;;;;;;;12.50;11.00;;;;;10.32;77.38;100027.66;6283119;20;2792131;-43
2021/11/08 10:48:03;;;;;;;;;12.00;11.00;;;;;10.43;77.11;100012.78;6285410;20;2774247;-43
2021/11/08 10:50:41;;;;;;;;;11.33;10.00;;;;;10.41;76.86;100002.13;6315376;20;2778417;-42
2021/11/08 10:53:08;;;;;;;;;12.00;10.50;;;;;10.45;76.30;100009.06;6321378;20;2789861;-42
2021/11/08 10:55:36;;;;;;;;;9.50;5.50;;;;;10.61;75.63;100025.19;6289617;20;2756488;-42
2021/11/08 10:58:16;;;;;;;;;17.00;9.80;;;;;10.71;74.04;100037.09;6310549;20;2800347;-43
2021/11/08 11:00:59;;;;;;;;;8.00;8.00;;;;;10.57;73.74;100031.66;6291131;20;2739975;-43
2021/11/08 11:03:31;;;;;;;;;10.00;10.00;;;;;10.58;73.30;100019.94;6308458;20;2779428;-43
2021/11/08 11:06:05;;;;;;;;;9.00;7.00;;;;;10.45;75.19;100024.28;6288375;20;2736736;-45
2021/11/08 11:08:34;;;;;;;;;14.00;11.00;;;;;10.63;72.91;100017.88;6284421;20;2792133;-43
2021/11/08 11:11:06;;;;;;;;;14.33;8.67;;;;;10.44;74.00;100023.41;6313249;20;3487875;-43
2021/11/08 11:13:37;;;;;;;;;9.00;6.57;;;;;10.50;73.62;100024.88;6359093;20;1795113;-43
2021/11/08 11:16:06;;;;;;;;;11.00;9.20;;;;;10.53;73.45;100017.56;6338643;20;2776282;-42
2021/11/08 11:18:38;;;;;;;;;10.50;9.50;;;;;10.51;72.49;100021.28;6285206;20;2772270;-42
2021/11/08 11:21:20;;;;;;;;;15.40;11.20;;;;;10.70;72.54;100021.09;6307988;20;2806501;-44
2021/11/08 11:23:50;;;;;;;;;9.00;9.00;;;;;10.66;73.05;100015.00;6287738;20;2740239;-44
2021/11/08 11:26:28;;;;;;;;;11.00;11.00;;;;;10.72;71.90;100008.44;6285688;20;2798285;-44
2021/11/08 11:28:58;;;;;;;;;9.00;9.00;;;;;10.65;71.93;100018.66;6283365;20;2739831;-43
2021/11/08 11:31:37;;;;;;;;;18.00;13.00;;;;;10.75;71.77;100017.19;6289358;20;2806489;-43
2021/11/08 11:34:24;;;;;;;;;10.50;10.50;;;;;10.95;71.21;100017.84;6283313;20;2790868;-45
2021/11/08 11:36:52;;;;;;;;;10.00;10.00;;;;;10.63;70.93;100017.00;6290751;20;2784653;-42
2021/11/08 11:39:22;;;;;;;;;12.33;10.00;;;;;10.84;71.87;100017.63;6284151;20;2786808;-42
2021/11/08 11:41:51;;;;;;;;;11.67;10.00;;;;;10.71;71.69;100021.00;6314175;20;2792021;-43
2021/11/08 11:44:24;;;;;;;;;12.60;11.40;;;;;10.45;71.80;100032.31;6358373;20;1951365;-43
2021/11/08 11:46:57;;;;;;;;;11.00;9.40;;;;;10.85;72.75;100033.66;6338579;20;2780528;-43
2021/11/08 11:49:26;;;;;;;;;20.33;16.00;;;;;10.77;71.86;100042.16;6283086;20;3565890;-42
2021/11/08 11:52:01;;;;;;;;;10.00;8.00;;;;;10.68;70.77;100036.41;6312738;20;2757573;-43
2021/11/08 11:54:30;;;;;;;;;15.00;15.00;;;;;10.68;71.58;100025.69;6283756;20;2500365;-45
2021/11/08 11:57:01;;;;;;;;;19.67;16.67;;;;;10.69;71.45;100028.28;6282607;20;3556459;-42
2021/11/08 11:59:30;;;;;;;;;13.50;12.00;;;;;10.51;71.68;100029.31;6287079;20;2801396;-43
2021/11/08 12:01:59;;;;;;;;;16.50;14.00;;;;;10.52;72.49;100028.38;6286332;20;2813785;-43
2021/11/08 12:04:29;;;;;;;;;18.33;14.00;;;;;10.67;73.18;100032.88;6284445;20;3539118;-43
2021/11/08 12:07:06;;;;;;;;;18.50;17.00;;;;;10.75;72.21;100029.75;6312874;20;2494056;-42
2021/11/08 12:09:35;;;;;;;;;15.33;13.33;;;;;10.71;72.64;100026.34;6281020;20;3542995;-43
2021/11/08 12:12:07;;;;;;;;;7.00;7.00;;;;;10.99;70.67;100024.78;6284135;20;2732718;-43
2021/11/08 12:14:37;;;;;;;;;11.00;10.00;;;;;10.74;71.52;100018.16;6280874;20;2787776;-44
2021/11/08 12:17:19;;;;;;;;;14.67;12.00;;;;;10.83;71.20;100029.31;6284556;20;3524259;-43
2021/11/08 12:19:51;;;;;;;;;10.20;9.60;;;;;11.09;70.91;100034.06;6338757;20;2776399;-44
2021/11/08 12:22:26;;;;;;;;;13.50;7.00;;;;;11.27;69.26;100028.53;6285708;20;2756506;-43
2021/11/08 12:25:19;;;;;;;;;4.50;4.50;;;;;11.17;68.92;100031.78;6283861;20;2744138;-44
2021/11/08 12:28:26;;;;;;;;;6.00;6.00;;;;;11.18;69.22;100025.44;6284598;20;2742983;-43
2021/11/08 12:31:01;;;;;;;;;14.50;11.50;;;;;11.09;69.39;100031.38;6279472;20;2789891;-43
2021/11/08 12:33:46;;;;;;;;;11.40;7.80;;;;;10.86;69.05;100029.16;6310508;20;2760707;-42
2021/11/08 12:36:19;;;;;;;;;11.60;9.00;;;;;10.75;69.67;100029.75;6304847;20;2782017;-42
2021/11/08 12:39:03;;;;;;;;;11.80;9.60;;;;;10.62;70.72;100029.56;6307659;20;2778374;-42
2021/11/08 12:41:47;;;;;;;;;9.00;7.00;;;;;10.59;70.55;100031.59;6286069;20;2734652;-44
2021/11/08 12:44:22;;;;;;;;;12.00;10.00;;;;;10.36;70.82;100036.41;6281926;20;2784717;-43
2021/11/08 12:47:00;;;;;;;;;21.00;20.00;;;;;10.35;72.12;100033.78;6282313;20;2491991;-42
2021/11/08 12:49:41;;;;;;;;;15.40;13.60;;;;;10.32;72.89;100030.34;6305361;20;2807535;-42
2021/11/08 12:52:19;;;;;;;;;28.33;18.67;;;;;10.43;72.37;100036.94;6281928;20;3583674;-43
2021/11/08 12:55:01;;;;;;;;;13.67;13.67;;;;;10.49;71.99;100029.41;6281969;20;3521078;-42
2021/11/08 12:57:34;;;;;;;;;12.00;12.00;;;;;10.46;72.51;100028.72;6337700;20;2792047;-43
2021/11/08 13:00:18;;;;;;;;;17.00;13.00;;;;;10.38;73.70;100028.28;6280739;20;2800295;-43
2021/11/08 13:03:00;;;;;;;;;11.00;11.00;;;;;10.41;73.02;100028.09;6313865;20;2792008;-43
2021/11/08 13:05:47;;;;;;;;;12.33;10.00;;;;;10.42;74.22;100036.06;6279931;20;2786791;-43
2021/11/08 13:08:28;;;;;;;;;14.40;10.60;;;;;10.49;74.07;100031.22;6334881;20;2790860;-43